sensor_id;sensor_type;location;lat;lon;timestamp;temperature;humidity
16174;DHT22;14031;50.158;8.626;2023-05-23T00:01:20;20.80;99.90
16174;DHT22;14031;50.158;8.626;2023-05-23T00:03:47;20.80;99.90
16174;DHT22;14031;50.158;8.626;2023-05-23T00:06:18;20.70;99.90
16174;DHT22;14031;50.158;8.626;2023-05-23T00:08:46;20.80;99.90
16174;DHT22;14031;50.158;8.626;2023-05-23T00:11:13;20.70;99.90
16174;DHT22;14031;50.158;8.626;2023-05-23T00:13:41;20.70;99.90
16174;DHT22;14031;50.158;8.626;2023-05-23T00:16:08;20.80;99.90
16174;DHT22;14031;50.158;8.626;2023-05-23T00:18:35;20.80;99.90
16174;DHT22;14031;50.158;8.626;2023-05-23T00:21:02;20.80;99.90
16174;DHT22;14031;50.158;8.626;2023-05-23T00:23:29;20.90;99.90
16174;DHT22;14031;50.158;8.626;2023-05-23T00:25:58;20.80;99.90
16174;DHT22;14031;50.158;8.626;2023-05-23T00:28:25;20.80;99.90
16174;DHT22;14031;50.158;8.626;2023-05-23T00:30:53;20.90;99.90
16174;DHT22;14031;50.158;8.626;2023-05-23T00:33:20;20.80;99.90
16174;DHT22;14031;50.158;8.626;2023-05-23T00:35:48;20.80;99.90
16174;DHT22;14031;50.158;8.626;2023-05-23T00:38:15;20.80;99.90
16174;DHT22;14031;50.158;8.626;2023-05-23T00:40:42;20.90;99.90
16174;DHT22;14031;50.158;8.626;2023-05-23T00:43:09;20.90;99.90
16174;DHT22;14031;50.158;8.626;2023-05-23T00:45:36;21.00;99.90
16174;DHT22;14031;50.158;8.626;2023-05-23T00:48:05;20.90;99.90
16174;DHT22;14031;50.158;8.626;2023-05-23T00:50:33;20.80;99.90
16174;DHT22;14031;50.158;8.626;2023-05-23T00:53:00;20.90;99.90
16174;DHT22;14031;50.158;8.626;2023-05-23T00:55:28;21.00;99.90
16174;DHT22;14031;50.158;8.626;2023-05-23T00:57:54;20.80;99.90
16174;DHT22;14031;50.158;8.626;2023-05-23T01:00:22;20.80;99.90
16174;DHT22;14031;50.158;8.626;2023-05-23T01:02:50;20.80;99.90
16174;DHT22;14031;50.158;8.626;2023-05-23T01:05:19;20.80;99.90
16174;DHT22;14031;50.158;8.626;2023-05-23T01:07:47;20.70;99.90
16174;DHT22;14031;50.158;8.626;2023-05-23T01:10:15;20.80;99.90
16174;DHT22;14031;50.158;8.626;2023-05-23T01:12:50;20.70;99.90
16174;DHT22;14031;50.158;8.626;2023-05-23T01:15:24;20.70;99.90
16174;DHT22;14031;50.158;8.626;2023-05-23T01:17:59;20.70;99.90
16174;DHT22;14031;50.158;8.626;2023-05-23T01:20:33;20.70;99.90
16174;DHT22;14031;50.158;8.626;2023-05-23T01:23:14;20.70;99.90
16174;DHT22;14031;50.158;8.626;2023-05-23T01:25:51;20.60;99.90
16174;DHT22;14031;50.158;8.626;2023-05-23T01:28:27;20.60;99.90
16174;DHT22;14031;50.158;8.626;2023-05-23T01:30:57;20.60;99.90
16174;DHT22;14031;50.158;8.626;2023-05-23T01:33:24;20.60;99.90
16174;DHT22;14031;50.158;8.626;2023-05-23T01:35:53;20.60;99.90
16174;DHT22;14031;50.158;8.626;2023-05-23T01:38:22;20.50;99.90
16174;DHT22;14031;50.158;8.626;2023-05-23T01:40:49;20.50;99.90
16174;DHT22;14031;50.158;8.626;2023-05-23T01:43:15;20.50;99.90
16174;DHT22;14031;50.158;8.626;2023-05-23T01:45:44;20.50;99.90
16174;DHT22;14031;50.158;8.626;2023-05-23T01:48:11;20.50;99.90
16174;DHT22;14031;50.158;8.626;2023-05-23T01:50:39;20.40;99.90
16174;DHT22;14031;50.158;8.626;2023-05-23T01:53:11;20.30;99.90
16174;DHT22;14031;50.158;8.626;2023-05-23T01:55:39;20.30;99.90
16174;DHT22;14031;50.158;8.626;2023-05-23T01:58:06;20.20;99.90
16174;DHT22;14031;50.158;8.626;2023-05-23T02:00:34;20.20;99.90
16174;DHT22;14031;50.158;8.626;2023-05-23T02:03:03;20.20;99.90
16174;DHT22;14031;50.158;8.626;2023-05-23T02:05:30;20.20;99.90
16174;DHT22;14031;50.158;8.626;2023-05-23T02:07:57;20.20;99.90
16174;DHT22;14031;50.158;8.626;2023-05-23T02:10:23;20.20;99.90
16174;DHT22;14031;50.158;8.626;2023-05-23T02:12:50;20.00;99.90
16174;DHT22;14031;50.158;8.626;2023-05-23T02:15:17;20.10;99.90
16174;DHT22;14031;50.158;8.626;2023-05-23T02:17:44;20.10;99.90
16174;DHT22;14031;50.158;8.626;2023-05-23T02:20:14;20.00;99.90
16174;DHT22;14031;50.158;8.626;2023-05-23T02:22:43;20.00;99.90
16174;DHT22;14031;50.158;8.626;2023-05-23T02:25:10;20.00;99.90
16174;DHT22;14031;50.158;8.626;2023-05-23T02:27:36;20.00;99.90
16174;DHT22;14031;50.158;8.626;2023-05-23T02:30:04;20.00;99.90
16174;DHT22;14031;50.158;8.626;2023-05-23T02:32:31;20.00;99.90
16174;DHT22;14031;50.158;8.626;2023-05-23T02:34:58;20.00;99.90
16174;DHT22;14031;50.158;8.626;2023-05-23T02:37:26;19.90;99.90
16174;DHT22;14031;50.158;8.626;2023-05-23T02:39:53;19.90;99.90
16174;DHT22;14031;50.158;8.626;2023-05-23T02:42:19;19.90;99.90
16174;DHT22;14031;50.158;8.626;2023-05-23T02:44:46;19.80;99.90
16174;DHT22;14031;50.158;8.626;2023-05-23T02:47:13;19.80;99.90
16174;DHT22;14031;50.158;8.626;2023-05-23T02:49:40;19.80;99.90
16174;DHT22;14031;50.158;8.626;2023-05-23T02:52:06;19.70;99.90
16174;DHT22;14031;50.158;8.626;2023-05-23T02:54:34;19.70;99.90
16174;DHT22;14031;50.158;8.626;2023-05-23T02:57:01;19.60;99.90
16174;DHT22;14031;50.158;8.626;2023-05-23T02:59:28;19.60;99.90
16174;DHT22;14031;50.158;8.626;2023-05-23T03:01:55;19.50;99.90
16174;DHT22;14031;50.158;8.626;2023-05-23T03:04:22;19.50;99.90
16174;DHT22;14031;50.158;8.626;2023-05-23T03:06:49;19.50;99.90
16174;DHT22;14031;50.158;8.626;2023-05-23T03:09:19;19.40;99.90
16174;DHT22;14031;50.158;8.626;2023-05-23T03:11:47;19.40;99.90
16174;DHT22;14031;50.158;8.626;2023-05-23T03:14:14;19.50;99.90
16174;DHT22;14031;50.158;8.626;2023-05-23T03:16:40;19.30;99.90
16174;DHT22;14031;50.158;8.626;2023-05-23T03:19:07;19.30;99.90
16174;DHT22;14031;50.158;8.626;2023-05-23T03:21:34;19.20;99.90
16174;DHT22;14031;50.158;8.626;2023-05-23T03:24:01;19.20;99.90
16174;DHT22;14031;50.158;8.626;2023-05-23T03:26:28;19.10;99.90
16174;DHT22;14031;50.158;8.626;2023-05-23T03:28:56;19.00;99.90
16174;DHT22;14031;50.158;8.626;2023-05-23T03:31:23;19.00;99.90
16174;DHT22;14031;50.158;8.626;2023-05-23T03:33:50;19.00;99.90
16174;DHT22;14031;50.158;8.626;2023-05-23T03:36:18;18.90;99.90
16174;DHT22;14031;50.158;8.626;2023-05-23T03:38:46;18.80;99.90
16174;DHT22;14031;50.158;8.626;2023-05-23T03:41:13;18.80;99.90
16174;DHT22;14031;50.158;8.626;2023-05-23T03:43:39;18.70;99.90
16174;DHT22;14031;50.158;8.626;2023-05-23T03:46:07;18.70;99.90
16174;DHT22;14031;50.158;8.626;2023-05-23T03:48:34;18.70;99.90
16174;DHT22;14031;50.158;8.626;2023-05-23T03:51:01;18.60;99.90
16174;DHT22;14031;50.158;8.626;2023-05-23T03:53:28;18.60;99.90
16174;DHT22;14031;50.158;8.626;2023-05-23T03:55:55;18.60;99.90
16174;DHT22;14031;50.158;8.626;2023-05-23T03:58:21;18.50;99.90
16174;DHT22;14031;50.158;8.626;2023-05-23T04:00:48;18.60;99.90
16174;DHT22;14031;50.158;8.626;2023-05-23T04:03:16;18.70;99.90
16174;DHT22;14031;50.158;8.626;2023-05-23T04:05:43;18.60;99.90
16174;DHT22;14031;50.158;8.626;2023-05-23T04:08:10;18.60;99.90
16174;DHT22;14031;50.158;8.626;2023-05-23T04:10:37;18.60;99.90
16174;DHT22;14031;50.158;8.626;2023-05-23T04:13:04;18.60;99.90
16174;DHT22;14031;50.158;8.626;2023-05-23T04:15:31;18.50;99.90
16174;DHT22;14031;50.158;8.626;2023-05-23T04:17:59;18.60;99.90
16174;DHT22;14031;50.158;8.626;2023-05-23T04:20:27;18.50;99.90
16174;DHT22;14031;50.158;8.626;2023-05-23T04:22:54;18.50;99.90
16174;DHT22;14031;50.158;8.626;2023-05-23T04:25:21;18.60;99.90
16174;DHT22;14031;50.158;8.626;2023-05-23T04:27:48;18.50;99.90
16174;DHT22;14031;50.158;8.626;2023-05-23T04:30:15;18.50;99.90
16174;DHT22;14031;50.158;8.626;2023-05-23T04:32:42;18.40;99.90
16174;DHT22;14031;50.158;8.626;2023-05-23T04:35:10;18.40;99.90
16174;DHT22;14031;50.158;8.626;2023-05-23T04:37:38;18.40;99.90
16174;DHT22;14031;50.158;8.626;2023-05-23T04:40:07;18.30;99.90
16174;DHT22;14031;50.158;8.626;2023-05-23T04:42:34;18.30;99.90
16174;DHT22;14031;50.158;8.626;2023-05-23T04:45:01;18.30;99.90
16174;DHT22;14031;50.158;8.626;2023-05-23T04:47:28;18.20;99.90
16174;DHT22;14031;50.158;8.626;2023-05-23T04:49:59;18.20;99.90
16174;DHT22;14031;50.158;8.626;2023-05-23T04:52:26;18.20;99.90
16174;DHT22;14031;50.158;8.626;2023-05-23T04:54:55;18.20;99.90
16174;DHT22;14031;50.158;8.626;2023-05-23T04:57:22;18.30;99.90
16174;DHT22;14031;50.158;8.626;2023-05-23T04:59:48;18.30;99.90
16174;DHT22;14031;50.158;8.626;2023-05-23T05:02:15;18.50;99.90
16174;DHT22;14031;50.158;8.626;2023-05-23T05:04:43;18.40;99.90
16174;DHT22;14031;50.158;8.626;2023-05-23T05:07:11;18.50;99.90
16174;DHT22;14031;50.158;8.626;2023-05-23T05:09:38;18.50;99.90
16174;DHT22;14031;50.158;8.626;2023-05-23T05:12:07;18.60;99.90
16174;DHT22;14031;50.158;8.626;2023-05-23T05:14:33;18.60;99.90
16174;DHT22;14031;50.158;8.626;2023-05-23T05:17:00;18.50;99.90
16174;DHT22;14031;50.158;8.626;2023-05-23T05:19:28;18.40;99.90
16174;DHT22;14031;50.158;8.626;2023-05-23T05:21:56;18.40;99.90
16174;DHT22;14031;50.158;8.626;2023-05-23T05:24:24;18.40;99.90
16174;DHT22;14031;50.158;8.626;2023-05-23T05:26:52;18.30;99.90
16174;DHT22;14031;50.158;8.626;2023-05-23T05:29:20;18.40;99.90
16174;DHT22;14031;50.158;8.626;2023-05-23T05:31:47;18.40;99.90
16174;DHT22;14031;50.158;8.626;2023-05-23T05:34:14;18.40;99.90
16174;DHT22;14031;50.158;8.626;2023-05-23T05:36:41;18.40;99.90
16174;DHT22;14031;50.158;8.626;2023-05-23T05:39:11;18.40;99.90
16174;DHT22;14031;50.158;8.626;2023-05-23T05:41:38;18.40;99.90
16174;DHT22;14031;50.158;8.626;2023-05-23T05:44:06;18.30;99.90
16174;DHT22;14031;50.158;8.626;2023-05-23T05:46:34;18.30;99.90
16174;DHT22;14031;50.158;8.626;2023-05-23T05:49:00;18.20;99.90
16174;DHT22;14031;50.158;8.626;2023-05-23T05:51:27;18.10;99.90
16174;DHT22;14031;50.158;8.626;2023-05-23T05:53:54;18.20;99.90
16174;DHT22;14031;50.158;8.626;2023-05-23T05:56:21;18.30;99.90
16174;DHT22;14031;50.158;8.626;2023-05-23T05:58:48;18.40;99.90
16174;DHT22;14031;50.158;8.626;2023-05-23T06:01:15;18.60;99.90
16174;DHT22;14031;50.158;8.626;2023-05-23T06:03:43;18.60;99.90
16174;DHT22;14031;50.158;8.626;2023-05-23T06:06:10;18.60;99.90
16174;DHT22;14031;50.158;8.626;2023-05-23T06:08:37;18.40;99.90
16174;DHT22;14031;50.158;8.626;2023-05-23T06:11:04;18.50;99.90
16174;DHT22;14031;50.158;8.626;2023-05-23T06:13:31;18.50;99.90
16174;DHT22;14031;50.158;8.626;2023-05-23T06:15:57;18.50;99.90
16174;DHT22;14031;50.158;8.626;2023-05-23T06:18:24;18.50;99.90
16174;DHT22;14031;50.158;8.626;2023-05-23T06:20:52;18.50;99.90
16174;DHT22;14031;50.158;8.626;2023-05-23T06:23:19;18.40;99.90
16174;DHT22;14031;50.158;8.626;2023-05-23T06:25:46;18.40;99.90
16174;DHT22;14031;50.158;8.626;2023-05-23T06:28:13;18.50;99.90
16174;DHT22;14031;50.158;8.626;2023-05-23T06:30:39;18.70;99.90
16174;DHT22;14031;50.158;8.626;2023-05-23T06:33:07;18.70;99.90
16174;DHT22;14031;50.158;8.626;2023-05-23T06:35:33;18.80;99.90
16174;DHT22;14031;50.158;8.626;2023-05-23T06:38:02;18.90;99.90
16174;DHT22;14031;50.158;8.626;2023-05-23T06:40:28;19.00;99.90
16174;DHT22;14031;50.158;8.626;2023-05-23T06:42:55;19.10;99.90
16174;DHT22;14031;50.158;8.626;2023-05-23T06:45:22;19.10;99.90
16174;DHT22;14031;50.158;8.626;2023-05-23T06:47:49;19.10;99.90
16174;DHT22;14031;50.158;8.626;2023-05-23T06:50:16;19.20;99.90
16174;DHT22;14031;50.158;8.626;2023-05-23T06:52:44;19.20;99.90
16174;DHT22;14031;50.158;8.626;2023-05-23T06:55:12;19.20;99.90
16174;DHT22;14031;50.158;8.626;2023-05-23T06:57:42;19.30;99.90
16174;DHT22;14031;50.158;8.626;2023-05-23T07:00:10;19.40;99.90
16174;DHT22;14031;50.158;8.626;2023-05-23T07:02:38;19.50;99.90
16174;DHT22;14031;50.158;8.626;2023-05-23T07:05:05;19.70;99.90
16174;DHT22;14031;50.158;8.626;2023-05-23T07:07:32;19.80;99.90
16174;DHT22;14031;50.158;8.626;2023-05-23T07:09:59;19.90;99.90
16174;DHT22;14031;50.158;8.626;2023-05-23T07:12:27;20.10;99.90
16174;DHT22;14031;50.158;8.626;2023-05-23T07:14:54;19.90;99.90
16174;DHT22;14031;50.158;8.626;2023-05-23T07:17:20;20.00;99.90
16174;DHT22;14031;50.158;8.626;2023-05-23T07:19:48;20.00;99.90
16174;DHT22;14031;50.158;8.626;2023-05-23T07:22:14;20.10;99.90
16174;DHT22;14031;50.158;8.626;2023-05-23T07:24:41;20.20;99.90
16174;DHT22;14031;50.158;8.626;2023-05-23T07:27:08;20.20;99.90
16174;DHT22;14031;50.158;8.626;2023-05-23T07:29:36;20.20;99.90
16174;DHT22;14031;50.158;8.626;2023-05-23T07:32:03;20.20;99.90
16174;DHT22;14031;50.158;8.626;2023-05-23T07:34:30;20.20;99.90
16174;DHT22;14031;50.158;8.626;2023-05-23T07:36:56;20.10;99.90
16174;DHT22;14031;50.158;8.626;2023-05-23T07:39:23;20.30;99.90
16174;DHT22;14031;50.158;8.626;2023-05-23T07:41:52;20.40;99.90
16174;DHT22;14031;50.158;8.626;2023-05-23T07:44:19;20.50;99.90
16174;DHT22;14031;50.158;8.626;2023-05-23T07:46:47;20.50;99.90
16174;DHT22;14031;50.158;8.626;2023-05-23T07:49:14;20.40;99.90
16174;DHT22;14031;50.158;8.626;2023-05-23T07:51:41;20.30;99.90
16174;DHT22;14031;50.158;8.626;2023-05-23T07:54:08;20.30;99.90
16174;DHT22;14031;50.158;8.626;2023-05-23T07:56:34;20.20;99.90
16174;DHT22;14031;50.158;8.626;2023-05-23T07:59:02;20.10;99.90
16174;DHT22;14031;50.158;8.626;2023-05-23T08:01:29;20.20;99.90
16174;DHT22;14031;50.158;8.626;2023-05-23T08:03:57;20.20;99.90
16174;DHT22;14031;50.158;8.626;2023-05-23T08:06:24;20.30;99.90
16174;DHT22;14031;50.158;8.626;2023-05-23T08:08:51;20.40;99.90
16174;DHT22;14031;50.158;8.626;2023-05-23T08:11:18;20.40;99.90
16174;DHT22;14031;50.158;8.626;2023-05-23T08:13:44;20.40;99.90
16174;DHT22;14031;50.158;8.626;2023-05-23T08:16:12;20.50;99.90
16174;DHT22;14031;50.158;8.626;2023-05-23T08:18:41;20.60;99.90
16174;DHT22;14031;50.158;8.626;2023-05-23T08:21:09;20.70;99.90
16174;DHT22;14031;50.158;8.626;2023-05-23T08:23:36;20.80;99.90
16174;DHT22;14031;50.158;8.626;2023-05-23T08:26:03;20.80;99.90
16174;DHT22;14031;50.158;8.626;2023-05-23T08:28:30;20.90;99.90
16174;DHT22;14031;50.158;8.626;2023-05-23T08:30:59;21.00;99.90
16174;DHT22;14031;50.158;8.626;2023-05-23T08:33:25;21.10;99.90
16174;DHT22;14031;50.158;8.626;2023-05-23T08:35:52;21.10;99.90
16174;DHT22;14031;50.158;8.626;2023-05-23T08:38:21;21.10;99.90
16174;DHT22;14031;50.158;8.626;2023-05-23T08:40:49;21.00;99.90
16174;DHT22;14031;50.158;8.626;2023-05-23T08:43:17;21.00;99.90
16174;DHT22;14031;50.158;8.626;2023-05-23T08:45:50;21.10;99.90
16174;DHT22;14031;50.158;8.626;2023-05-23T08:48:19;21.30;99.90
16174;DHT22;14031;50.158;8.626;2023-05-23T08:50:47;21.30;99.90
16174;DHT22;14031;50.158;8.626;2023-05-23T08:53:15;21.20;99.90
16174;DHT22;14031;50.158;8.626;2023-05-23T08:55:46;21.20;99.90
16174;DHT22;14031;50.158;8.626;2023-05-23T08:58:16;21.30;99.90
16174;DHT22;14031;50.158;8.626;2023-05-23T09:00:46;21.20;99.90
16174;DHT22;14031;50.158;8.626;2023-05-23T09:03:12;21.10;99.90
16174;DHT22;14031;50.158;8.626;2023-05-23T09:05:40;21.00;99.90
16174;DHT22;14031;50.158;8.626;2023-05-23T09:08:07;20.90;99.90
16174;DHT22;14031;50.158;8.626;2023-05-23T09:10:35;20.80;99.90
16174;DHT22;14031;50.158;8.626;2023-05-23T09:13:04;20.70;99.90
16174;DHT22;14031;50.158;8.626;2023-05-23T09:15:31;20.80;99.90
16174;DHT22;14031;50.158;8.626;2023-05-23T09:17:59;20.90;99.90
16174;DHT22;14031;50.158;8.626;2023-05-23T09:20:28;20.80;99.90
16174;DHT22;14031;50.158;8.626;2023-05-23T09:22:55;20.70;99.90
16174;DHT22;14031;50.158;8.626;2023-05-23T09:25:22;20.60;99.90
16174;DHT22;14031;50.158;8.626;2023-05-23T09:27:51;20.60;99.90
16174;DHT22;14031;50.158;8.626;2023-05-23T09:30:20;20.60;99.90
16174;DHT22;14031;50.158;8.626;2023-05-23T09:32:57;20.60;99.90
16174;DHT22;14031;50.158;8.626;2023-05-23T09:35:27;20.60;99.90
16174;DHT22;14031;50.158;8.626;2023-05-23T09:37:56;20.60;99.90
16174;DHT22;14031;50.158;8.626;2023-05-23T09:40:28;20.70;99.90
16174;DHT22;14031;50.158;8.626;2023-05-23T09:43:01;21.00;99.90
16174;DHT22;14031;50.158;8.626;2023-05-23T09:45:30;21.10;99.90
16174;DHT22;14031;50.158;8.626;2023-05-23T09:47:57;21.20;99.90
16174;DHT22;14031;50.158;8.626;2023-05-23T09:50:29;21.30;99.90
16174;DHT22;14031;50.158;8.626;2023-05-23T09:52:56;21.50;99.90
16174;DHT22;14031;50.158;8.626;2023-05-23T09:55:23;21.50;99.90
16174;DHT22;14031;50.158;8.626;2023-05-23T09:57:53;21.60;99.90
16174;DHT22;14031;50.158;8.626;2023-05-23T10:00:22;21.50;99.90
16174;DHT22;14031;50.158;8.626;2023-05-23T10:03:07;21.40;99.90
16174;DHT22;14031;50.158;8.626;2023-05-23T10:05:40;21.10;99.90
16174;DHT22;14031;50.158;8.626;2023-05-23T10:08:08;21.00;99.90
16174;DHT22;14031;50.158;8.626;2023-05-23T10:11:07;21.00;99.90
16174;DHT22;14031;50.158;8.626;2023-05-23T10:13:48;20.70;99.90
16174;DHT22;14031;50.158;8.626;2023-05-23T10:16:19;20.90;99.90
16174;DHT22;14031;50.158;8.626;2023-05-23T10:18:56;21.00;99.90
16174;DHT22;14031;50.158;8.626;2023-05-23T10:21:32;21.10;99.90
16174;DHT22;14031;50.158;8.626;2023-05-23T10:23:59;21.00;99.90
16174;DHT22;14031;50.158;8.626;2023-05-23T10:26:26;21.10;99.90
16174;DHT22;14031;50.158;8.626;2023-05-23T10:28:54;21.30;99.90
16174;DHT22;14031;50.158;8.626;2023-05-23T10:31:22;21.30;99.90
16174;DHT22;14031;50.158;8.626;2023-05-23T10:33:55;21.50;99.90
16174;DHT22;14031;50.158;8.626;2023-05-23T10:36:28;21.60;99.90
16174;DHT22;14031;50.158;8.626;2023-05-23T10:39:01;21.50;99.90
16174;DHT22;14031;50.158;8.626;2023-05-23T10:41:35;21.50;99.90
16174;DHT22;14031;50.158;8.626;2023-05-23T10:44:10;21.50;99.90
16174;DHT22;14031;50.158;8.626;2023-05-23T10:46:51;21.30;99.90
16174;DHT22;14031;50.158;8.626;2023-05-23T10:49:20;21.30;99.90
16174;DHT22;14031;50.158;8.626;2023-05-23T10:51:48;21.30;99.90
16174;DHT22;14031;50.158;8.626;2023-05-23T10:54:17;21.30;99.90
16174;DHT22;14031;50.158;8.626;2023-05-23T10:56:44;21.10;99.90
16174;DHT22;14031;50.158;8.626;2023-05-23T10:59:19;21.10;99.90
16174;DHT22;14031;50.158;8.626;2023-05-23T11:01:46;21.00;99.90
16174;DHT22;14031;50.158;8.626;2023-05-23T11:04:25;21.00;99.90
16174;DHT22;14031;50.158;8.626;2023-05-23T11:06:53;21.00;99.90
16174;DHT22;14031;50.158;8.626;2023-05-23T11:09:20;20.90;99.90
16174;DHT22;14031;50.158;8.626;2023-05-23T11:12:00;20.90;99.90
16174;DHT22;14031;50.158;8.626;2023-05-23T11:14:32;20.80;99.90
16174;DHT22;14031;50.158;8.626;2023-05-23T11:16:59;20.80;99.90
16174;DHT22;14031;50.158;8.626;2023-05-23T11:19:28;20.90;99.90
16174;DHT22;14031;50.158;8.626;2023-05-23T11:21:57;20.90;99.90
16174;DHT22;14031;50.158;8.626;2023-05-23T11:24:49;21.10;99.90
16174;DHT22;14031;50.158;8.626;2023-05-23T11:27:16;21.30;99.90
16174;DHT22;14031;50.158;8.626;2023-05-23T11:29:54;21.50;99.90
16174;DHT22;14031;50.158;8.626;2023-05-23T11:32:22;21.70;99.90
16174;DHT22;14031;50.158;8.626;2023-05-23T11:34:51;21.80;99.90
16174;DHT22;14031;50.158;8.626;2023-05-23T11:37:18;21.90;99.90
16174;DHT22;14031;50.158;8.626;2023-05-23T11:39:45;22.10;99.90
16174;DHT22;14031;50.158;8.626;2023-05-23T11:42:11;22.20;99.90
16174;DHT22;14031;50.158;8.626;2023-05-23T11:44:38;22.40;99.90
16174;DHT22;14031;50.158;8.626;2023-05-23T11:47:06;22.40;99.90
16174;DHT22;14031;50.158;8.626;2023-05-23T11:49:34;22.40;99.90
16174;DHT22;14031;50.158;8.626;2023-05-23T11:52:04;22.50;99.90
16174;DHT22;14031;50.158;8.626;2023-05-23T11:54:32;22.40;99.90
16174;DHT22;14031;50.158;8.626;2023-05-23T11:56:59;22.50;99.90
16174;DHT22;14031;50.158;8.626;2023-05-23T11:59:26;22.50;99.90
16174;DHT22;14031;50.158;8.626;2023-05-23T12:01:53;22.40;99.90
16174;DHT22;14031;50.158;8.626;2023-05-23T12:04:20;22.40;99.90
16174;DHT22;14031;50.158;8.626;2023-05-23T12:06:48;22.40;99.90
16174;DHT22;14031;50.158;8.626;2023-05-23T12:09:16;22.40;99.90
16174;DHT22;14031;50.158;8.626;2023-05-23T12:11:43;22.20;99.90
16174;DHT22;14031;50.158;8.626;2023-05-23T12:14:14;22.20;99.90
16174;DHT22;14031;50.158;8.626;2023-05-23T12:16:43;22.00;99.90
16174;DHT22;14031;50.158;8.626;2023-05-23T12:19:11;22.00;99.90
16174;DHT22;14031;50.158;8.626;2023-05-23T12:21:42;22.00;99.90
16174;DHT22;14031;50.158;8.626;2023-05-23T12:24:19;21.90;99.90
16174;DHT22;14031;50.158;8.626;2023-05-23T12:26:50;21.90;99.90
16174;DHT22;14031;50.158;8.626;2023-05-23T12:29:21;22.00;99.90
16174;DHT22;14031;50.158;8.626;2023-05-23T12:31:53;22.20;99.90
16174;DHT22;14031;50.158;8.626;2023-05-23T12:34:21;22.40;99.90
16174;DHT22;14031;50.158;8.626;2023-05-23T12:36:47;22.50;99.90
16174;DHT22;14031;50.158;8.626;2023-05-23T12:39:23;22.40;99.90
16174;DHT22;14031;50.158;8.626;2023-05-23T12:41:50;22.30;99.90
16174;DHT22;14031;50.158;8.626;2023-05-23T12:44:17;22.20;99.90
16174;DHT22;14031;50.158;8.626;2023-05-23T12:46:45;22.00;99.90
16174;DHT22;14031;50.158;8.626;2023-05-23T12:49:12;22.00;99.90
16174;DHT22;14031;50.158;8.626;2023-05-23T12:51:40;22.00;99.90
16174;DHT22;14031;50.158;8.626;2023-05-23T12:54:07;22.20;99.90
16174;DHT22;14031;50.158;8.626;2023-05-23T12:56:36;22.30;99.90
16174;DHT22;14031;50.158;8.626;2023-05-23T12:59:02;22.40;99.90
16174;DHT22;14031;50.158;8.626;2023-05-23T13:01:29;22.50;99.90
16174;DHT22;14031;50.158;8.626;2023-05-23T13:03:58;22.50;99.90
16174;DHT22;14031;50.158;8.626;2023-05-23T13:06:25;22.70;99.90
16174;DHT22;14031;50.158;8.626;2023-05-23T13:08:52;22.70;99.90
16174;DHT22;14031;50.158;8.626;2023-05-23T13:11:19;22.40;99.90
16174;DHT22;14031;50.158;8.626;2023-05-23T13:13:48;22.50;99.90
16174;DHT22;14031;50.158;8.626;2023-05-23T13:16:15;22.20;99.90
16174;DHT22;14031;50.158;8.626;2023-05-23T13:18:42;22.10;99.90
16174;DHT22;14031;50.158;8.626;2023-05-23T13:21:09;22.00;99.90
16174;DHT22;14031;50.158;8.626;2023-05-23T13:23:35;22.10;99.90
16174;DHT22;14031;50.158;8.626;2023-05-23T13:26:03;22.00;99.90
16174;DHT22;14031;50.158;8.626;2023-05-23T13:28:31;21.90;99.90
16174;DHT22;14031;50.158;8.626;2023-05-23T13:30:59;22.00;99.90
16174;DHT22;14031;50.158;8.626;2023-05-23T13:33:27;22.00;99.90
16174;DHT22;14031;50.158;8.626;2023-05-23T13:35:54;22.20;99.90
16174;DHT22;14031;50.158;8.626;2023-05-23T13:38:22;22.20;99.90
16174;DHT22;14031;50.158;8.626;2023-05-23T13:40:48;22.20;99.90
16174;DHT22;14031;50.158;8.626;2023-05-23T13:43:16;22.10;99.90
16174;DHT22;14031;50.158;8.626;2023-05-23T13:45:42;22.10;99.90
16174;DHT22;14031;50.158;8.626;2023-05-23T13:48:11;22.00;99.90
16174;DHT22;14031;50.158;8.626;2023-05-23T13:50:37;22.00;99.90
16174;DHT22;14031;50.158;8.626;2023-05-23T13:53:04;22.00;99.90
16174;DHT22;14031;50.158;8.626;2023-05-23T13:55:38;21.90;99.90
16174;DHT22;14031;50.158;8.626;2023-05-23T13:58:05;22.10;99.90
16174;DHT22;14031;50.158;8.626;2023-05-23T14:00:32;22.10;99.90
16174;DHT22;14031;50.158;8.626;2023-05-23T14:02:59;22.20;99.90
16174;DHT22;14031;50.158;8.626;2023-05-23T14:05:27;22.10;99.90
16174;DHT22;14031;50.158;8.626;2023-05-23T14:07:54;22.10;99.90
16174;DHT22;14031;50.158;8.626;2023-05-23T14:10:21;22.10;99.90
16174;DHT22;14031;50.158;8.626;2023-05-23T14:12:48;22.00;99.90
16174;DHT22;14031;50.158;8.626;2023-05-23T14:15:15;21.90;99.90
16174;DHT22;14031;50.158;8.626;2023-05-23T14:17:42;21.70;99.90
16174;DHT22;14031;50.158;8.626;2023-05-23T14:20:10;21.70;99.90
16174;DHT22;14031;50.158;8.626;2023-05-23T14:22:38;21.60;99.90
16174;DHT22;14031;50.158;8.626;2023-05-23T14:25:05;21.60;99.90
16174;DHT22;14031;50.158;8.626;2023-05-23T14:27:32;21.70;99.90
16174;DHT22;14031;50.158;8.626;2023-05-23T14:29:59;21.70;99.90
16174;DHT22;14031;50.158;8.626;2023-05-23T14:32:26;21.80;99.90
16174;DHT22;14031;50.158;8.626;2023-05-23T14:34:52;21.80;99.90
16174;DHT22;14031;50.158;8.626;2023-05-23T14:37:19;21.60;99.90
16174;DHT22;14031;50.158;8.626;2023-05-23T14:39:47;21.80;99.90
16174;DHT22;14031;50.158;8.626;2023-05-23T14:42:14;22.00;99.90
16174;DHT22;14031;50.158;8.626;2023-05-23T14:44:41;22.00;99.90
16174;DHT22;14031;50.158;8.626;2023-05-23T14:47:08;21.90;99.90
16174;DHT22;14031;50.158;8.626;2023-05-23T14:49:35;21.80;99.90
16174;DHT22;14031;50.158;8.626;2023-05-23T14:52:02;21.80;99.90
16174;DHT22;14031;50.158;8.626;2023-05-23T14:54:29;21.70;99.90
16174;DHT22;14031;50.158;8.626;2023-05-23T14:56:57;21.70;99.90
16174;DHT22;14031;50.158;8.626;2023-05-23T14:59:24;22.00;99.90
16174;DHT22;14031;50.158;8.626;2023-05-23T15:01:53;21.80;99.90
16174;DHT22;14031;50.158;8.626;2023-05-23T15:04:20;21.90;99.90
16174;DHT22;14031;50.158;8.626;2023-05-23T15:06:47;22.00;99.90
16174;DHT22;14031;50.158;8.626;2023-05-23T15:09:15;22.10;99.90
16174;DHT22;14031;50.158;8.626;2023-05-23T15:11:42;22.10;99.90
16174;DHT22;14031;50.158;8.626;2023-05-23T15:14:11;22.20;99.90
16174;DHT22;14031;50.158;8.626;2023-05-23T15:16:38;22.20;99.90
16174;DHT22;14031;50.158;8.626;2023-05-23T15:19:08;22.10;99.90
16174;DHT22;14031;50.158;8.626;2023-05-23T15:21:35;22.40;99.90
16174;DHT22;14031;50.158;8.626;2023-05-23T15:24:02;22.60;99.90
16174;DHT22;14031;50.158;8.626;2023-05-23T15:26:29;23.00;99.90
16174;DHT22;14031;50.158;8.626;2023-05-23T15:28:56;23.00;99.90
16174;DHT22;14031;50.158;8.626;2023-05-23T15:31:24;22.80;99.90
16174;DHT22;14031;50.158;8.626;2023-05-23T15:33:50;22.60;99.90
16174;DHT22;14031;50.158;8.626;2023-05-23T15:36:17;22.40;99.90